sensor_id;sensor_type;location;lat;lon;timestamp;P1;durP1;ratioP1;P2;durP2;ratioP2
29574;SDS011;16507;51.046;6.406;2022-07-01T00:00:57;6.40;;;4.80;;
29574;SDS011;16507;51.046;6.406;2022-07-01T00:03:22;9.02;;;4.97;;
29574;SDS011;16507;51.046;6.406;2022-07-01T00:05:48;6.45;;;5.70;;
29574;SDS011;16507;51.046;6.406;2022-07-01T00:08:13;6.43;;;5.50;;
29574;SDS011;16507;51.046;6.406;2022-07-01T00:10:39;11.07;;;5.88;;
29574;SDS011;16507;51.046;6.406;2022-07-01T00:13:05;7.30;;;6.60;;
29574;SDS011;16507;51.046;6.406;2022-07-01T00:15:33;9.20;;;6.75;;
29574;SDS011;16507;51.046;6.406;2022-07-01T00:17:59;10.43;;;6.22;;
29574;SDS011;16507;51.046;6.406;2022-07-01T00:20:25;9.23;;;6.03;;
29574;SDS011;16507;51.046;6.406;2022-07-01T00:22:50;9.80;;;6.47;;
29574;SDS011;16507;51.046;6.406;2022-07-01T00:25:16;8.80;;;7.45;;
29574;SDS011;16507;51.046;6.406;2022-07-01T00:27:41;7.55;;;6.60;;
29574;SDS011;16507;51.046;6.406;2022-07-01T00:30:08;9.07;;;7.88;;
29574;SDS011;16507;51.046;6.406;2022-07-01T00:32:34;12.27;;;7.45;;
29574;SDS011;16507;51.046;6.406;2022-07-01T00:35:01;8.88;;;7.45;;
29574;SDS011;16507;51.046;6.406;2022-07-01T00:37:27;16.27;;;8.77;;
29574;SDS011;16507;51.046;6.406;2022-07-01T00:39:53;15.95;;;9.57;;
29574;SDS011;16507;51.046;6.406;2022-07-01T00:42:19;15.57;;;8.90;;
29574;SDS011;16507;51.046;6.406;2022-07-01T00:44:44;12.13;;;8.93;;
29574;SDS011;16507;51.046;6.406;2022-07-01T00:47:11;20.70;;;9.52;;
29574;SDS011;16507;51.046;6.406;2022-07-01T00:49:38;14.85;;;9.55;;
29574;SDS011;16507;51.046;6.406;2022-07-01T00:52:05;23.20;;;9.73;;
29574;SDS011;16507;51.046;6.406;2022-07-01T00:54:32;16.05;;;9.55;;
29574;SDS011;16507;51.046;6.406;2022-07-01T00:57:04;14.40;;;9.13;;
29574;SDS011;16507;51.046;6.406;2022-07-01T00:59:35;18.90;;;10.10;;
29574;SDS011;16507;51.046;6.406;2022-07-01T01:02:01;12.35;;;9.32;;
29574;SDS011;16507;51.046;6.406;2022-07-01T01:04:28;15.18;;;9.57;;
29574;SDS011;16507;51.046;6.406;2022-07-01T01:06:53;16.35;;;9.40;;
29574;SDS011;16507;51.046;6.406;2022-07-01T01:09:19;13.65;;;9.27;;
29574;SDS011;16507;51.046;6.406;2022-07-01T01:11:44;12.73;;;9.18;;
29574;SDS011;16507;51.046;6.406;2022-07-01T01:14:10;18.48;;;10.18;;
29574;SDS011;16507;51.046;6.406;2022-07-01T01:16:36;18.40;;;9.32;;
29574;SDS011;16507;51.046;6.406;2022-07-01T01:19:06;17.90;;;10.02;;
29574;SDS011;16507;51.046;6.406;2022-07-01T01:21:35;20.23;;;11.32;;
29574;SDS011;16507;51.046;6.406;2022-07-01T01:24:00;24.15;;;10.85;;
29574;SDS011;16507;51.046;6.406;2022-07-01T01:26:27;21.05;;;11.00;;
29574;SDS011;16507;51.046;6.406;2022-07-01T01:28:53;21.80;;;11.00;;
29574;SDS011;16507;51.046;6.406;2022-07-01T01:31:26;19.38;;;10.13;;
29574;SDS011;16507;51.046;6.406;2022-07-01T01:33:58;21.08;;;10.40;;
29574;SDS011;16507;51.046;6.406;2022-07-01T01:36:23;14.13;;;9.27;;
29574;SDS011;16507;51.046;6.406;2022-07-01T01:38:49;17.35;;;8.88;;
29574;SDS011;16507;51.046;6.406;2022-07-01T01:41:15;14.65;;;8.40;;
29574;SDS011;16507;51.046;6.406;2022-07-01T01:43:40;15.10;;;8.05;;
29574;SDS011;16507;51.046;6.406;2022-07-01T01:46:06;12.00;;;7.82;;
29574;SDS011;16507;51.046;6.406;2022-07-01T01:48:31;14.75;;;8.02;;
29574;SDS011;16507;51.046;6.406;2022-07-01T01:50:57;10.40;;;7.32;;
29574;SDS011;16507;51.046;6.406;2022-07-01T01:53:23;14.73;;;7.25;;
29574;SDS011;16507;51.046;6.406;2022-07-01T01:55:49;9.02;;;7.10;;
29574;SDS011;16507;51.046;6.406;2022-07-01T01:58:15;12.27;;;6.65;;
29574;SDS011;16507;51.046;6.406;2022-07-01T02:00:41;16.15;;;6.88;;
29574;SDS011;16507;51.046;6.406;2022-07-01T02:03:06;13.35;;;5.80;;
29574;SDS011;16507;51.046;6.406;2022-07-01T02:05:33;12.85;;;6.10;;
29574;SDS011;16507;51.046;6.406;2022-07-01T02:08:01;12.68;;;5.70;;
29574;SDS011;16507;51.046;6.406;2022-07-01T02:10:28;8.70;;;5.80;;
29574;SDS011;16507;51.046;6.406;2022-07-01T02:12:54;9.93;;;5.07;;
29574;SDS011;16507;51.046;6.406;2022-07-01T02:15:19;7.78;;;4.97;;
29574;SDS011;16507;51.046;6.406;2022-07-01T02:17:45;9.43;;;5.60;;
29574;SDS011;16507;51.046;6.406;2022-07-01T02:20:11;9.25;;;5.55;;
29574;SDS011;16507;51.046;6.406;2022-07-01T02:22:40;12.98;;;5.53;;
29574;SDS011;16507;51.046;6.406;2022-07-01T02:25:06;13.57;;;5.85;;
29574;SDS011;16507;51.046;6.406;2022-07-01T02:27:32;8.63;;;6.20;;
29574;SDS011;16507;51.046;6.406;2022-07-01T02:29:58;11.30;;;5.18;;
29574;SDS011;16507;51.046;6.406;2022-07-01T02:32:24;13.30;;;4.90;;
29574;SDS011;16507;51.046;6.406;2022-07-01T02:34:50;11.25;;;4.35;;
29574;SDS011;16507;51.046;6.406;2022-07-01T02:37:16;7.18;;;4.72;;
29574;SDS011;16507;51.046;6.406;2022-07-01T02:39:41;10.75;;;4.55;;
29574;SDS011;16507;51.046;6.406;2022-07-01T02:42:07;15.35;;;4.43;;
29574;SDS011;16507;51.046;6.406;2022-07-01T02:44:48;6.10;;;3.17;;
29574;SDS011;16507;51.046;6.406;2022-07-01T02:47:14;8.98;;;4.00;;
29574;SDS011;16507;51.046;6.406;2022-07-01T02:49:40;9.23;;;3.67;;
29574;SDS011;16507;51.046;6.406;2022-07-01T02:52:05;14.45;;;3.53;;
29574;SDS011;16507;51.046;6.406;2022-07-01T02:54:32;5.50;;;3.15;;
29574;SDS011;16507;51.046;6.406;2022-07-01T02:56:57;5.63;;;3.25;;
29574;SDS011;16507;51.046;6.406;2022-07-01T02:59:23;4.15;;;3.53;;
29574;SDS011;16507;51.046;6.406;2022-07-01T03:01:48;9.13;;;3.60;;
29574;SDS011;16507;51.046;6.406;2022-07-01T03:04:14;7.28;;;3.25;;
29574;SDS011;16507;51.046;6.406;2022-07-01T03:06:40;7.70;;;3.75;;
29574;SDS011;16507;51.046;6.406;2022-07-01T03:09:06;10.68;;;4.03;;
29574;SDS011;16507;51.046;6.406;2022-07-01T03:11:32;3.78;;;3.47;;
29574;SDS011;16507;51.046;6.406;2022-07-01T03:13:57;6.10;;;3.33;;
29574;SDS011;16507;51.046;6.406;2022-07-01T03:16:23;5.90;;;3.00;;
29574;SDS011;16507;51.046;6.406;2022-07-01T03:18:49;7.13;;;3.63;;
29574;SDS011;16507;51.046;6.406;2022-07-01T03:21:14;10.40;;;3.67;;
29574;SDS011;16507;51.046;6.406;2022-07-01T03:23:40;9.30;;;3.80;;
29574;SDS011;16507;51.046;6.406;2022-07-01T03:26:05;8.77;;;3.70;;
29574;SDS011;16507;51.046;6.406;2022-07-01T03:28:31;5.20;;;3.20;;
29574;SDS011;16507;51.046;6.406;2022-07-01T03:30:59;5.30;;;3.20;;
29574;SDS011;16507;51.046;6.406;2022-07-01T03:33:25;8.95;;;3.53;;
29574;SDS011;16507;51.046;6.406;2022-07-01T03:35:50;7.68;;;3.53;;
29574;SDS011;16507;51.046;6.406;2022-07-01T03:38:16;10.95;;;3.60;;
29574;SDS011;16507;51.046;6.406;2022-07-01T03:40:42;13.10;;;3.60;;
29574;SDS011;16507;51.046;6.406;2022-07-01T03:43:07;5.40;;;3.60;;
29574;SDS011;16507;51.046;6.406;2022-07-01T03:45:34;18.25;;;3.90;;
29574;SDS011;16507;51.046;6.406;2022-07-01T03:48:00;5.78;;;3.13;;
29574;SDS011;16507;51.046;6.406;2022-07-01T03:50:27;6.05;;;3.65;;
29574;SDS011;16507;51.046;6.406;2022-07-01T03:52:53;7.85;;;3.22;;
29574;SDS011;16507;51.046;6.406;2022-07-01T03:55:37;5.70;;;4.10;;
29574;SDS011;16507;51.046;6.406;2022-07-01T03:58:03;4.22;;;3.28;;
29574;SDS011;16507;51.046;6.406;2022-07-01T04:00:30;5.07;;;3.10;;
29574;SDS011;16507;51.046;6.406;2022-07-01T04:02:59;4.00;;;3.35;;
29574;SDS011;16507;51.046;6.406;2022-07-01T04:05:24;8.18;;;3.50;;
29574;SDS011;16507;51.046;6.406;2022-07-01T04:07:50;6.20;;;3.42;;
29574;SDS011;16507;51.046;6.406;2022-07-01T04:10:16;10.85;;;3.58;;
29574;SDS011;16507;51.046;6.406;2022-07-01T04:12:42;6.13;;;3.28;;
29574;SDS011;16507;51.046;6.406;2022-07-01T04:15:08;8.60;;;3.75;;
29574;SDS011;16507;51.046;6.406;2022-07-01T04:17:34;5.57;;;3.30;;
29574;SDS011;16507;51.046;6.406;2022-07-01T04:19:59;5.30;;;2.83;;
29574;SDS011;16507;51.046;6.406;2022-07-01T04:22:25;6.13;;;4.43;;
29574;SDS011;16507;51.046;6.406;2022-07-01T04:25:03;11.73;;;3.58;;
29574;SDS011;16507;51.046;6.406;2022-07-01T04:27:30;6.82;;;2.83;;
29574;SDS011;16507;51.046;6.406;2022-07-01T04:29:56;13.07;;;3.42;;
29574;SDS011;16507;51.046;6.406;2022-07-01T04:32:22;6.57;;;2.78;;
29574;SDS011;16507;51.046;6.406;2022-07-01T04:34:48;3.13;;;2.83;;
29574;SDS011;16507;51.046;6.406;2022-07-01T04:37:14;6.35;;;3.00;;
29574;SDS011;16507;51.046;6.406;2022-07-01T04:39:39;5.85;;;3.33;;
29574;SDS011;16507;51.046;6.406;2022-07-01T04:42:05;3.25;;;2.92;;
29574;SDS011;16507;51.046;6.406;2022-07-01T04:44:34;8.63;;;3.85;;
29574;SDS011;16507;51.046;6.406;2022-07-01T04:47:01;4.20;;;3.30;;
29574;SDS011;16507;51.046;6.406;2022-07-01T04:49:28;3.40;;;2.95;;
29574;SDS011;16507;51.046;6.406;2022-07-01T04:51:54;6.95;;;3.17;;
29574;SDS011;16507;51.046;6.406;2022-07-01T04:54:20;4.35;;;3.10;;
29574;SDS011;16507;51.046;6.406;2022-07-01T04:56:46;11.38;;;3.30;;
29574;SDS011;16507;51.046;6.406;2022-07-01T04:59:13;8.85;;;3.17;;
29574;SDS011;16507;51.046;6.406;2022-07-01T05:01:40;3.58;;;2.60;;
29574;SDS011;16507;51.046;6.406;2022-07-01T05:04:06;5.93;;;2.80;;
29574;SDS011;16507;51.046;6.406;2022-07-01T05:06:31;6.10;;;2.80;;
29574;SDS011;16507;51.046;6.406;2022-07-01T05:08:59;3.35;;;2.97;;
29574;SDS011;16507;51.046;6.406;2022-07-01T05:11:24;3.20;;;3.00;;
29574;SDS011;16507;51.046;6.406;2022-07-01T05:13:50;7.10;;;3.90;;
29574;SDS011;16507;51.046;6.406;2022-07-01T05:16:16;4.78;;;3.15;;
29574;SDS011;16507;51.046;6.406;2022-07-01T05:18:42;5.15;;;3.40;;
29574;SDS011;16507;51.046;6.406;2022-07-01T05:21:26;5.38;;;3.05;;
29574;SDS011;16507;51.046;6.406;2022-07-01T05:24:10;7.30;;;3.00;;
29574;SDS011;16507;51.046;6.406;2022-07-01T05:26:36;5.78;;;2.80;;
29574;SDS011;16507;51.046;6.406;2022-07-01T05:29:03;5.93;;;2.95;;
29574;SDS011;16507;51.046;6.406;2022-07-01T05:31:29;4.35;;;2.75;;
29574;SDS011;16507;51.046;6.406;2022-07-01T05:33:55;5.68;;;2.80;;
29574;SDS011;16507;51.046;6.406;2022-07-01T05:36:20;4.82;;;3.20;;
29574;SDS011;16507;51.046;6.406;2022-07-01T05:38:46;5.25;;;3.00;;
29574;SDS011;16507;51.046;6.406;2022-07-01T05:41:12;4.13;;;2.78;;
29574;SDS011;16507;51.046;6.406;2022-07-01T05:43:38;4.28;;;2.60;;
29574;SDS011;16507;51.046;6.406;2022-07-01T05:46:03;3.55;;;2.92;;
29574;SDS011;16507;51.046;6.406;2022-07-01T05:48:29;3.58;;;2.80;;
29574;SDS011;16507;51.046;6.406;2022-07-01T05:50:55;3.58;;;3.17;;
29574;SDS011;16507;51.046;6.406;2022-07-01T05:53:21;10.50;;;3.10;;
29574;SDS011;16507;51.046;6.406;2022-07-01T05:55:47;5.72;;;2.95;;
29574;SDS011;16507;51.046;6.406;2022-07-01T05:58:13;8.13;;;3.00;;
29574;SDS011;16507;51.046;6.406;2022-07-01T06:00:39;6.05;;;3.92;;
29574;SDS011;16507;51.046;6.406;2022-07-01T06:03:12;9.30;;;3.35;;
29574;SDS011;16507;51.046;6.406;2022-07-01T06:05:39;3.97;;;3.33;;
29574;SDS011;16507;51.046;6.406;2022-07-01T06:08:05;6.30;;;3.60;;
29574;SDS011;16507;51.046;6.406;2022-07-01T06:10:31;3.90;;;3.15;;
29574;SDS011;16507;51.046;6.406;2022-07-01T06:12:57;5.55;;;3.67;;
29574;SDS011;16507;51.046;6.406;2022-07-01T06:15:23;8.45;;;3.67;;
29574;SDS011;16507;51.046;6.406;2022-07-01T06:17:49;4.35;;;3.95;;
29574;SDS011;16507;51.046;6.406;2022-07-01T06:20:16;4.38;;;3.83;;
29574;SDS011;16507;51.046;6.406;2022-07-01T06:22:42;5.13;;;3.88;;
29574;SDS011;16507;51.046;6.406;2022-07-01T06:25:08;8.13;;;4.13;;
29574;SDS011;16507;51.046;6.406;2022-07-01T06:27:40;5.95;;;3.88;;
29574;SDS011;16507;51.046;6.406;2022-07-01T06:30:08;5.75;;;4.63;;
29574;SDS011;16507;51.046;6.406;2022-07-01T06:32:34;7.32;;;4.55;;
29574;SDS011;16507;51.046;6.406;2022-07-01T06:35:00;12.07;;;4.88;;
29574;SDS011;16507;51.046;6.406;2022-07-01T06:37:26;5.80;;;4.20;;
29574;SDS011;16507;51.046;6.406;2022-07-01T06:39:51;5.00;;;4.60;;
29574;SDS011;16507;51.046;6.406;2022-07-01T06:42:17;7.15;;;4.50;;
29574;SDS011;16507;51.046;6.406;2022-07-01T06:44:43;5.38;;;4.88;;
29574;SDS011;16507;51.046;6.406;2022-07-01T06:47:09;7.63;;;4.78;;
29574;SDS011;16507;51.046;6.406;2022-07-01T06:49:35;5.63;;;4.30;;
29574;SDS011;16507;51.046;6.406;2022-07-01T06:52:00;8.55;;;4.65;;
29574;SDS011;16507;51.046;6.406;2022-07-01T06:54:26;10.10;;;4.78;;
29574;SDS011;16507;51.046;6.406;2022-07-01T06:56:53;7.57;;;4.43;;
29574;SDS011;16507;51.046;6.406;2022-07-01T06:59:19;6.93;;;3.85;;
29574;SDS011;16507;51.046;6.406;2022-07-01T07:01:45;5.20;;;3.83;;
29574;SDS011;16507;51.046;6.406;2022-07-01T07:04:11;6.53;;;3.17;;
29574;SDS011;16507;51.046;6.406;2022-07-01T07:06:36;8.10;;;3.80;;
29574;SDS011;16507;51.046;6.406;2022-07-01T07:09:02;5.57;;;3.72;;
29574;SDS011;16507;51.046;6.406;2022-07-01T07:11:28;6.07;;;3.08;;
29574;SDS011;16507;51.046;6.406;2022-07-01T07:13:54;6.43;;;3.05;;
29574;SDS011;16507;51.046;6.406;2022-07-01T07:16:19;4.65;;;2.50;;
29574;SDS011;16507;51.046;6.406;2022-07-01T07:18:46;2.38;;;2.08;;
29574;SDS011;16507;51.046;6.406;2022-07-01T07:21:12;3.28;;;1.83;;
29574;SDS011;16507;51.046;6.406;2022-07-01T07:23:38;6.65;;;1.90;;
29574;SDS011;16507;51.046;6.406;2022-07-01T07:26:03;5.22;;;2.05;;
29574;SDS011;16507;51.046;6.406;2022-07-01T07:28:29;3.15;;;1.90;;
29574;SDS011;16507;51.046;6.406;2022-07-01T07:30:55;5.07;;;2.00;;
29574;SDS011;16507;51.046;6.406;2022-07-01T07:33:20;3.03;;;2.15;;
29574;SDS011;16507;51.046;6.406;2022-07-01T07:35:46;9.52;;;2.28;;
29574;SDS011;16507;51.046;6.406;2022-07-01T07:38:12;6.15;;;1.70;;
29574;SDS011;16507;51.046;6.406;2022-07-01T07:40:38;3.88;;;2.08;;
29574;SDS011;16507;51.046;6.406;2022-07-01T07:43:03;4.55;;;1.95;;
29574;SDS011;16507;51.046;6.406;2022-07-01T07:45:31;6.28;;;1.77;;
29574;SDS011;16507;51.046;6.406;2022-07-01T07:47:56;8.20;;;1.50;;
29574;SDS011;16507;51.046;6.406;2022-07-01T07:50:23;6.13;;;1.95;;
29574;SDS011;16507;51.046;6.406;2022-07-01T07:52:49;7.47;;;1.95;;
29574;SDS011;16507;51.046;6.406;2022-07-01T07:55:14;7.97;;;1.70;;
29574;SDS011;16507;51.046;6.406;2022-07-01T07:57:40;6.43;;;1.88;;
29574;SDS011;16507;51.046;6.406;2022-07-01T08:00:07;3.53;;;1.40;;
29574;SDS011;16507;51.046;6.406;2022-07-01T08:02:34;4.03;;;1.67;;
29574;SDS011;16507;51.046;6.406;2022-07-01T08:05:01;4.30;;;1.65;;
29574;SDS011;16507;51.046;6.406;2022-07-01T08:07:27;1.75;;;1.27;;
29574;SDS011;16507;51.046;6.406;2022-07-01T08:09:53;3.17;;;1.30;;
29574;SDS011;16507;51.046;6.406;2022-07-01T08:12:20;4.40;;;1.50;;
29574;SDS011;16507;51.046;6.406;2022-07-01T08:14:47;1.85;;;1.50;;
29574;SDS011;16507;51.046;6.406;2022-07-01T08:17:13;4.63;;;1.40;;
29574;SDS011;16507;51.046;6.406;2022-07-01T08:19:38;2.15;;;1.45;;
29574;SDS011;16507;51.046;6.406;2022-07-01T08:22:04;4.97;;;1.25;;
29574;SDS011;16507;51.046;6.406;2022-07-01T08:24:30;2.65;;;1.50;;
29574;SDS011;16507;51.046;6.406;2022-07-01T08:26:55;2.50;;;1.33;;
29574;SDS011;16507;51.046;6.406;2022-07-01T08:29:21;2.88;;;1.35;;
29574;SDS011;16507;51.046;6.406;2022-07-01T08:31:47;3.05;;;1.38;;
29574;SDS011;16507;51.046;6.406;2022-07-01T08:34:12;2.25;;;1.48;;
29574;SDS011;16507;51.046;6.406;2022-07-01T08:36:38;2.47;;;1.83;;
29574;SDS011;16507;51.046;6.406;2022-07-01T08:39:03;6.40;;;1.83;;
29574;SDS011;16507;51.046;6.406;2022-07-01T08:41:29;2.92;;;1.50;;
29574;SDS011;16507;51.046;6.406;2022-07-01T08:43:56;5.65;;;1.40;;
29574;SDS011;16507;51.046;6.406;2022-07-01T08:46:22;2.85;;;1.15;;
29574;SDS011;16507;51.046;6.406;2022-07-01T08:48:48;2.17;;;1.30;;
29574;SDS011;16507;51.046;6.406;2022-07-01T08:51:14;3.78;;;1.10;;
29574;SDS011;16507;51.046;6.406;2022-07-01T08:53:40;3.65;;;1.45;;
29574;SDS011;16507;51.046;6.406;2022-07-01T08:56:05;1.33;;;1.02;;
29574;SDS011;16507;51.046;6.406;2022-07-01T08:58:50;4.50;;;1.10;;
29574;SDS011;16507;51.046;6.406;2022-07-01T09:03:44;2.58;;;1.02;;
29574;SDS011;16507;51.046;6.406;2022-07-01T09:06:14;3.03;;;1.08;;
29574;SDS011;16507;51.046;6.406;2022-07-01T09:08:42;3.10;;;1.00;;
29574;SDS011;16507;51.046;6.406;2022-07-01T09:11:23;4.93;;;1.38;;
29574;SDS011;16507;51.046;6.406;2022-07-01T09:14:10;1.50;;;1.05;;
29574;SDS011;16507;51.046;6.406;2022-07-01T09:16:44;2.95;;;1.08;;
29574;SDS011;16507;51.046;6.406;2022-07-01T09:19:11;3.30;;;1.13;;
29574;SDS011;16507;51.046;6.406;2022-07-01T09:21:38;3.72;;;1.20;;
29574;SDS011;16507;51.046;6.406;2022-07-01T09:24:22;1.83;;;1.30;;
29574;SDS011;16507;51.046;6.406;2022-07-01T09:26:56;6.47;;;1.10;;
29574;SDS011;16507;51.046;6.406;2022-07-01T09:29:25;1.88;;;0.90;;
29574;SDS011;16507;51.046;6.406;2022-07-01T09:31:52;6.82;;;1.17;;
29574;SDS011;16507;51.046;6.406;2022-07-01T09:34:18;3.08;;;0.70;;
29574;SDS011;16507;51.046;6.406;2022-07-01T09:36:51;0.82;;;0.70;;
29574;SDS011;16507;51.046;6.406;2022-07-01T09:39:21;1.35;;;0.65;;
29574;SDS011;16507;51.046;6.406;2022-07-01T09:41:47;1.42;;;0.50;;
29574;SDS011;16507;51.046;6.406;2022-07-01T09:44:15;2.72;;;0.57;;
29574;SDS011;16507;51.046;6.406;2022-07-01T09:46:54;1.65;;;0.43;;
29574;SDS011;16507;51.046;6.406;2022-07-01T09:49:21;0.47;;;0.47;;
29574;SDS011;16507;51.046;6.406;2022-07-01T09:51:48;4.07;;;0.70;;
29574;SDS011;16507;51.046;6.406;2022-07-01T09:54:15;2.53;;;0.50;;
29574;SDS011;16507;51.046;6.406;2022-07-01T09:56:41;0.95;;;0.55;;
29574;SDS011;16507;51.046;6.406;2022-07-01T09:59:07;2.17;;;0.60;;
29574;SDS011;16507;51.046;6.406;2022-07-01T10:01:33;4.25;;;0.57;;
29574;SDS011;16507;51.046;6.406;2022-07-01T10:03:59;4.35;;;0.60;;
29574;SDS011;16507;51.046;6.406;2022-07-01T10:14:57;1.75;;;0.38;;
29574;SDS011;16507;51.046;6.406;2022-07-01T10:17:29;2.45;;;0.50;;
29574;SDS011;16507;51.046;6.406;2022-07-01T10:20:05;2.80;;;0.38;;
29574;SDS011;16507;51.046;6.406;2022-07-01T10:22:37;2.03;;;0.70;;
29574;SDS011;16507;51.046;6.406;2022-07-01T10:30:36;0.75;;;0.50;;
29574;SDS011;16507;51.046;6.406;2022-07-01T10:33:48;4.63;;;0.60;;
29574;SDS011;16507;51.046;6.406;2022-07-01T10:41:25;1.80;;;0.30;;
29574;SDS011;16507;51.046;6.406;2022-07-01T10:43:55;1.63;;;0.50;;
29574;SDS011;16507;51.046;6.406;2022-07-01T10:49:08;2.50;;;0.40;;
29574;SDS011;16507;51.046;6.406;2022-07-01T10:51:51;5.10;;;0.35;;
29574;SDS011;16507;51.046;6.406;2022-07-01T11:02:17;3.20;;;0.50;;
29574;SDS011;16507;51.046;6.406;2022-07-01T11:04:49;5.05;;;0.40;;
29574;SDS011;16507;51.046;6.406;2022-07-01T11:07:15;0.88;;;0.47;;
29574;SDS011;16507;51.046;6.406;2022-07-01T11:09:41;0.70;;;0.30;;
29574;SDS011;16507;51.046;6.406;2022-07-01T11:12:07;1.02;;;0.38;;
29574;SDS011;16507;51.046;6.406;2022-07-01T11:14:34;2.63;;;0.52;;
29574;SDS011;16507;51.046;6.406;2022-07-01T11:17:01;2.72;;;0.30;;
29574;SDS011;16507;51.046;6.406;2022-07-01T11:19:28;1.20;;;0.50;;
29574;SDS011;16507;51.046;6.406;2022-07-01T11:21:54;1.38;;;0.40;;
29574;SDS011;16507;51.046;6.406;2022-07-01T11:24:20;1.77;;;0.50;;
29574;SDS011;16507;51.046;6.406;2022-07-01T11:26:46;1.55;;;0.57;;
29574;SDS011;16507;51.046;6.406;2022-07-01T11:29:13;3.47;;;0.20;;
29574;SDS011;16507;51.046;6.406;2022-07-01T11:31:40;1.60;;;0.40;;
29574;SDS011;16507;51.046;6.406;2022-07-01T11:34:06;1.38;;;0.40;;
29574;SDS011;16507;51.046;6.406;2022-07-01T11:36:32;2.95;;;0.50;;
29574;SDS011;16507;51.046;6.406;2022-07-01T11:39:18;0.80;;;0.30;;
29574;SDS011;16507;51.046;6.406;2022-07-01T11:41:51;2.90;;;0.40;;
29574;SDS011;16507;51.046;6.406;2022-07-01T11:44:31;1.10;;;0.38;;
29574;SDS011;16507;51.046;6.406;2022-07-01T11:47:04;0.90;;;0.20;;
29574;SDS011;16507;51.046;6.406;2022-07-01T11:49:42;1.08;;;0.38;;
29574;SDS011;16507;51.046;6.406;2022-07-01T11:52:13;1.45;;;0.35;;
29574;SDS011;16507;51.046;6.406;2022-07-01T11:54:44;1.30;;;0.47;;
29574;SDS011;16507;51.046;6.406;2022-07-01T11:57:15;1.42;;;0.30;;
29574;SDS011;16507;51.046;6.406;2022-07-01T11:59:48;0.95;;;0.40;;
29574;SDS011;16507;51.046;6.406;2022-07-01T12:02:15;0.50;;;0.20;;
29574;SDS011;16507;51.046;6.406;2022-07-01T12:04:43;1.40;;;0.35;;
29574;SDS011;16507;51.046;6.406;2022-07-01T12:07:10;0.50;;;0.30;;
29574;SDS011;16507;51.046;6.406;2022-07-01T12:09:37;4.57;;;0.38;;
29574;SDS011;16507;51.046;6.406;2022-07-01T12:12:03;0.80;;;0.20;;
29574;SDS011;16507;51.046;6.406;2022-07-01T12:14:31;2.45;;;0.20;;
29574;SDS011;16507;51.046;6.406;2022-07-01T12:17:01;1.45;;;0.20;;
29574;SDS011;16507;51.046;6.406;2022-07-01T12:22:00;1.92;;;0.30;;
29574;SDS011;16507;51.046;6.406;2022-07-01T12:24:26;2.08;;;0.40;;
29574;SDS011;16507;51.046;6.406;2022-07-01T12:29:24;1.13;;;0.35;;
29574;SDS011;16507;51.046;6.406;2022-07-01T12:31:59;0.65;;;0.40;;
29574;SDS011;16507;51.046;6.406;2022-07-01T12:34:45;0.63;;;0.30;;
29574;SDS011;16507;51.046;6.406;2022-07-01T12:37:17;0.52;;;0.30;;
29574;SDS011;16507;51.046;6.406;2022-07-01T12:39:43;11.38;;;0.50;;
29574;SDS011;16507;51.046;6.406;2022-07-01T12:42:19;0.75;;;0.45;;
29574;SDS011;16507;51.046;6.406;2022-07-01T12:44:51;2.10;;;0.45;;
29574;SDS011;16507;51.046;6.406;2022-07-01T12:47:19;1.33;;;0.50;;
29574;SDS011;16507;51.046;6.406;2022-07-01T12:49:49;1.95;;;0.55;;
29574;SDS011;16507;51.046;6.406;2022-07-01T12:52:27;3.60;;;0.40;;
29574;SDS011;16507;51.046;6.406;2022-07-01T12:54:55;1.63;;;0.68;;
29574;SDS011;16507;51.046;6.406;2022-07-01T12:57:28;0.50;;;0.22;;
29574;SDS011;16507;51.046;6.406;2022-07-01T12:59:57;2.28;;;0.50;;
29574;SDS011;16507;51.046;6.406;2022-07-01T13:02:24;1.90;;;0.30;;
29574;SDS011;16507;51.046;6.406;2022-07-01T13:04:49;0.25;;;0.17;;
29574;SDS011;16507;51.046;6.406;2022-07-01T13:07:15;1.30;;;0.40;;
29574;SDS011;16507;51.046;6.406;2022-07-01T13:09:41;0.75;;;0.50;;
29574;SDS011;16507;51.046;6.406;2022-07-01T13:12:06;1.15;;;0.40;;
29574;SDS011;16507;51.046;6.406;2022-07-01T13:14:32;0.60;;;0.30;;
29574;SDS011;16507;51.046;6.406;2022-07-01T13:16:58;1.45;;;0.32;;
29574;SDS011;16507;51.046;6.406;2022-07-01T13:19:24;1.00;;;0.30;;
29574;SDS011;16507;51.046;6.406;2022-07-01T13:21:49;1.10;;;0.40;;
29574;SDS011;16507;51.046;6.406;2022-07-01T13:24:15;1.20;;;0.40;;
29574;SDS011;16507;51.046;6.406;2022-07-01T13:26:40;0.93;;;0.40;;
29574;SDS011;16507;51.046;6.406;2022-07-01T13:29:06;4.07;;;0.40;;
29574;SDS011;16507;51.046;6.406;2022-07-01T13:31:32;13.35;;;0.52;;
29574;SDS011;16507;51.046;6.406;2022-07-01T13:33:58;2.80;;;0.50;;
29574;SDS011;16507;51.046;6.406;2022-07-01T13:36:23;1.30;;;0.50;;
29574;SDS011;16507;51.046;6.406;2022-07-01T13:38:49;1.65;;;0.32;;
29574;SDS011;16507;51.046;6.406;2022-07-01T13:41:16;1.23;;;0.25;;
29574;SDS011;16507;51.046;6.406;2022-07-01T13:43:42;3.13;;;0.30;;
29574;SDS011;16507;51.046;6.406;2022-07-01T13:46:08;1.08;;;0.30;;
29574;SDS011;16507;51.046;6.406;2022-07-01T13:48:33;4.05;;;0.32;;
29574;SDS011;16507;51.046;6.406;2022-07-01T13:50:59;2.58;;;0.52;;
29574;SDS011;16507;51.046;6.406;2022-07-01T13:53:26;0.52;;;0.28;;
29574;SDS011;16507;51.046;6.406;2022-07-01T13:55:51;5.57;;;1.00;;
29574;SDS011;16507;51.046;6.406;2022-07-01T13:58:17;4.78;;;0.50;;
29574;SDS011;16507;51.046;6.406;2022-07-01T14:00:43;2.47;;;0.40;;
29574;SDS011;16507;51.046;6.406;2022-07-01T14:03:08;3.83;;;0.25;;
29574;SDS011;16507;51.046;6.406;2022-07-01T14:05:37;1.70;;;0.50;;
29574;SDS011;16507;51.046;6.406;2022-07-01T14:08:03;0.57;;;0.30;;
29574;SDS011;16507;51.046;6.406;2022-07-01T14:10:29;4.28;;;0.30;;
29574;SDS011;16507;51.046;6.406;2022-07-01T14:12:56;2.40;;;0.60;;
29574;SDS011;16507;51.046;6.406;2022-07-01T14:15:21;2.38;;;0.28;;
29574;SDS011;16507;51.046;6.406;2022-07-01T14:17:47;1.80;;;0.35;;
29574;SDS011;16507;51.046;6.406;2022-07-01T14:20:13;0.75;;;0.20;;
29574;SDS011;16507;51.046;6.406;2022-07-01T14:22:39;3.30;;;0.75;;
29574;SDS011;16507;51.046;6.406;2022-07-01T14:25:04;1.85;;;0.38;;
29574;SDS011;16507;51.046;6.406;2022-07-01T14:27:30;4.88;;;0.40;;
29574;SDS011;16507;51.046;6.406;2022-07-01T14:29:56;4.57;;;0.30;;
29574;SDS011;16507;51.046;6.406;2022-07-01T14:32:21;6.35;;;0.45;;
29574;SDS011;16507;51.046;6.406;2022-07-01T14:34:52;1.65;;;0.40;;
29574;SDS011;16507;51.046;6.406;2022-07-01T14:37:18;3.47;;;0.20;;
29574;SDS011;16507;51.046;6.406;2022-07-01T14:39:44;1.20;;;0.20;;
29574;SDS011;16507;51.046;6.406;2022-07-01T14:42:09;0.15;;;0.13;;
29574;SDS011;16507;51.046;6.406;2022-07-01T14:44:35;3.35;;;0.28;;
29574;SDS011;16507;51.046;6.406;2022-07-01T14:47:01;1.65;;;0.10;;
29574;SDS011;16507;51.046;6.406;2022-07-01T14:49:27;1.42;;;0.40;;
29574;SDS011;16507;51.046;6.406;2022-07-01T14:51:53;5.90;;;0.40;;
29574;SDS011;16507;51.046;6.406;2022-07-01T14:54:19;0.88;;;0.20;;
29574;SDS011;16507;51.046;6.406;2022-07-01T14:56:44;2.75;;;0.30;;
29574;SDS011;16507;51.046;6.406;2022-07-01T14:59:10;0.40;;;0.30;;
29574;SDS011;16507;51.046;6.406;2022-07-01T15:01:36;0.50;;;0.20;;
29574;SDS011;16507;51.046;6.406;2022-07-01T15:04:01;0.20;;;0.20;;
29574;SDS011;16507;51.046;6.406;2022-07-01T15:06:27;1.02;;;0.20;;
29574;SDS011;16507;51.046;6.406;2022-07-01T15:08:53;1.02;;;0.50;;
29574;SDS011;16507;51.046;6.406;2022-07-01T15:11:18;1.88;;;0.82;;
29574;SDS011;16507;51.046;6.406;2022-07-01T15:13:44;1.50;;;0.60;;
29574;SDS011;16507;51.046;6.406;2022-07-01T15:16:10;3.03;;;0.40;;
29574;SDS011;16507;51.046;6.406;2022-07-01T15:18:35;0.50;;;0.20;;
29574;SDS011;16507;51.046;6.406;2022-07-01T15:21:01;1.30;;;0.30;;
29574;SDS011;16507;51.046;6.406;2022-07-01T15:23:27;4.20;;;0.55;;